2014 - 14th Annual Jack O Lantern Jog 5K JACK O'LANTERN JOG


2014 - 14th Annual Jack O Lantern Jog 5K

Overall Finish List

October 26, 2014


Classic Race Services, LLC Classic Race Services

JACK O'LANTERN JOG

Place Name City Bib No Age Gender Age Group Total Time Pace
1 Justin Ingels Athens GA 724 32 M 1 30-34 17:35.8 5:40/M
2 David Duncan Bogart GA 575 39 M 1 35-39 19:24.0 6:15/M
3 Anderson Adams Conyers GA 504 31 M 2 30-34 21:08.1 6:49/M
4 Tommy Dorminy Mcdonough GA 720 16 M 1 15-19 21:12.5 6:50/M
5 Randy Ballew Watkinsville GA 519 61 M 1 60-64 22:25.3 7:14/M
6 Griffin Stephens Maysville GA 682 12 M 1 11-14 22:39.8 7:18/M
7 Chris Pitts Lavonia GA 652 32 M 3 30-34 22:48.8 7:21/M
8 Loraine Hillard Flowery Branch GA 611 55 F 1 55-59 23:17.3 7:31/M
9 Mark Townsend Watkinsville GA 688 51 M 1 50-54 23:20.9 7:32/M
10 Allison Arnold Loganville GA 513 29 F 1 25-29 23:23.2 7:33/M
11 Jeff Hood Watkinsville GA 735 49 M 1 45-49 23:39.6 7:38/M
12 Stephanie Cleveland Winterville GA 738 35 F 1 35-39 23:44.8 7:39/M
13 Rick Hayes Dahlonega GA 716 56 M 1 55-59 23:47.7 7:40/M
14 Carl Fuller Winder GA 708 45 M 2 45-49 24:03.8 7:45/M
15 Jennifer Thompson Whaley Winder GA 730 38 F 2 35-39 24:09.6 7:47/M
16 Caroline Duncan Bogart GA 574 11 F 1 11-14 24:39.7 7:57/M
17 Jon Bishop Commerce GA 531 30 M 4 30-34 24:40.9 7:57/M
18 Gary Godfrey Crawford GA 713 68 M 1 65-69 25:04.6 8:05/M
19 Steve Hartley Eastanollee GA 710 53 M 2 50-54 25:09.5 8:07/M
20 Steve Stephens Maysville GA 683 44 M 1 40-44 25:22.8 8:11/M
21 Aidan Landrum Bogart GA 626 10 M 1 0-10 25:31.2 8:14/M
22 Brent Bishop Commerce GA 530 8 M 2 0-10 25:36.8 8:15/M
23 Brian Lavender Suwanee GA 628 60 M 2 60-64 25:54.6 8:21/M
24 Will Bowick Monroe GA 539 10 M 3 0-10 26:00.6 8:23/M
25 Gavin Ford Royston GA 526 10 M 4 0-10 26:01.7 8:24/M
26 Mary Beth Forwood Bishop GA 584 51 F 1 50-54 26:12.9 8:27/M
27 Sarah Beth Johnson Loganville GA 619 16 F 1 15-19 26:39.1 8:36/M
28 Mac Gay Covington GA 731 66 M 2 65-69 26:50.7 8:39/M
29 Briana Fetrow Alpharetta GA 581 24 F 1 20-24 27:02.2 8:43/M
30 Gary Hansford Athens GA 603 67 M 3 65-69 27:21.7 8:49/M
31 Paul Guest Nicholson GA 600 52 M 3 50-54 27:59.4 9:02/M
32 Linda Hunt Loganville GA 613 56 F 2 55-59 28:06.0 9:04/M
33 Michael Berejikian Athens GA 528 16 M 2 15-19 28:15.2 9:07/M
34 Chase Stephens Maysville GA 680 9 M 5 0-10 28:20.5 9:08/M
35 Ryan Pannell Good Hope GA 646 22 M 1 20-24 28:46.9 9:17/M
36 Jack Cooney Athens GA 557 12 M 2 11-14 28:59.9 9:21/M
37 Patty Melnick Athens GA 639 45 F 1 45-49 29:20.4 9:28/M
38 Laura Hamilton Griffin GA 734 20 F 2 20-24 29:25.3 9:29/M
39 Kevin Weaver Commerce GA 693 41 M 2 40-44 29:29.8 9:31/M
40 Bill Chamblee Anderson SC 554 67 M 4 65-69 29:39.1 9:34/M
41 Thomas Fussell Walhalla SC 741 24 M 2 20-24 29:42.7 9:35/M
42 Ginny Ingels Athens GA 726 32 F 1 30-34 29:45.6 9:36/M
43 David Oblinger Alpharetta GA 725 64 M 3 60-64 29:48.6 9:37/M
44 Amber Reeves Covington GA 659 34 F 2 30-34 30:10.1 9:44/M
45 Ginger Pitts Lavonia GA 653 38 F 3 35-39 30:13.5 9:45/M
46 Matthew Leach Athens GA 630 40 M 3 40-44 30:25.1 9:49/M
47 Meg Perry Winder GA 651 41 F 1 40-44 30:34.2 9:52/M
48 William Tweedell Hull GA 689 70 M 1 70-74 30:40.5 9:54/M
49 Dretavious Foster 727 10 M 6 0-10 30:44.8 9:55/M
50 Sherri Price Athens GA 657 48 F 2 45-49 30:50.7 9:57/M
51 Keith Lester Athens GA 631 56 M 2 55-59 30:51.2 9:57/M
52 Susie Dorminy Mcdonough GA 721 13 F 2 11-14 30:52.3 9:57/M
53 Cindy Stephens Maysville GA 681 40 F 2 40-44 30:57.5 9:59/M
54 Josh Smith Nicholson GA 676 31 M 5 30-34 31:10.3 10:03/M
55 Avery Smith Nicholson GA 672 8 M 7 0-10 31:23.1 10:07/M
56 Jenney Roundtree Bethlehem GA 663 42 F 3 40-44 31:36.0 10:12/M
57 Larry Hayes Cumming GA 608 66 M 5 65-69 31:43.3 10:14/M
58 Dalty Friedman Commerce GA 585 8 F 1 0-10 31:52.0 10:17/M
59 Christina Bailey Loganville GA 729 43 F 4 40-44 32:06.1 10:21/M
60 Jim Latimer Gainesville GA 711 73 M 2 70-74 32:07.2 10:22/M
61 Sharon Williams Winder GA 697 52 F 2 50-54 32:10.2 10:23/M
62 Ted Harris Watkinsville GA 607 44 M 4 40-44 32:17.8 10:25/M
63 Allyn Timberlake Athens GA 686 55 F 3 55-59 32:22.4 10:26/M
64 Josh Fincher Tignall GA 582 32 M 6 30-34 32:29.6 10:29/M
65 Luke Graycheck Athens GA 591 25 M 1 25-29 32:32.5 10:30/M
66 Susan McGarity Dahlonega GA 717 52 F 3 50-54 32:40.0 10:32/M
67 Kelsie Ballew Watkinsville GA 518 13 F 3 11-14 32:41.6 10:33/M
68 Erin Richardson Snellville GA 660 29 F 2 25-29 32:45.2 10:34/M
69 Pi Dorminy Mcdonough GA 722 8 M 8 0-10 32:46.2 10:34/M
70 Trenton Bishop Commerce GA 533 10 M 9 0-10 32:46.5 10:34/M
71 Amidaus Sanchez Winder GA 737 10 M 10 0-10 32:51.1 10:36/M
72 Scott Colcord Winder GA 736 44 M 5 40-44 32:59.9 10:38/M
73 Dan Smith Athens GA 674 40 M 6 40-44 33:08.7 10:41/M
74 Norma Young Watkinsville GA 705 47 F 3 45-49 33:39.2 10:51/M
75 Barbara Taylor Athens GA 685 61 F 1 60-64 33:44.9 10:53/M
76 Melissa Day-Rodriguez Lawrenceville GA 568 33 F 3 30-34 33:47.8 10:54/M
77 Justine Tobin Lawrenceville GA 687 29 F 3 25-29 33:49.6 10:55/M
78 John Gregg Watkinsville GA 592 67 M 6 65-69 33:58.0 10:57/M
79 Kierstin Walton Bogart GA 732 38 F 4 35-39 33:59.8 10:58/M
80 David Walton Bogart GA 733 38 M 2 35-39 34:12.5 11:02/M
81 Elizabeth Elliott Athens GA 580 25 F 4 25-29 34:34.9 11:09/M
82 Mary Hayes Cumming GA 609 65 F 1 65-69 34:43.5 11:12/M
83 Jerry Cunningham Clarkesville GA 562 57 M 3 55-59 34:44.3 11:12/M
84 Brianna Kuckuck Bethlehem GA 625 17 F 2 15-19 34:45.4 11:13/M
85 David Andrew Duncan Bogart GA 576 8 M 11 0-10 34:48.2 11:14/M
86 Abby Seagraves Commerce GA 667 10 F 2 0-10 34:55.1 11:16/M
87 Belle Wheeler Commerce GA 694 27 F 5 25-29 35:10.1 11:21/M
88 Charlie Wheeler Commerce GA 695 8 M 12 0-10 35:14.2 11:22/M
89 Kimberly Grizzle Monroe GA 598 30 F 4 30-34 35:26.3 11:26/M
90 Bill Costantino Jefferson GA 556 71 M 3 70-74 35:32.7 11:28/M
91 Cadence Janzer Commerce GA 614 9 F 3 0-10 36:19.4 11:43/M
92 Steve Bryant Watkinsville GA 545 56 M 4 55-59 36:20.7 11:43/M
93 Gracie Brown Commerce GA 542 8 F 4 0-10 36:44.0 11:51/M
94 Peggy Bryant Watkinsville GA 544 57 F 4 55-59 36:45.0 11:51/M
95 Jessica Dunn Grayson GA 578 28 F 6 25-29 36:47.5 11:52/M
96 Mark Polson Monroe GA 655 45 M 3 45-49 36:51.2 11:53/M
97 Beth Woods Athens GA 702 33 F 5 30-34 37:08.3 11:59/M
98 Kevin Crowe Athens GA 560 38 M 3 35-39 37:12.1 12:00/M
99 Latasha Bishop Commerce GA 532 27 F 7 25-29 37:20.8 12:03/M
100 Rachel Wilbur-Carlyle Suwanee GA 551 33 F 6 30-34 37:34.0 12:07/M
 
Place Name City Bib No Age Gender Age Group Total Time Pace
101 Becky Dorminy Mcdonough GA 723 11 F 4 11-14 37:55.7 12:14/M
102 John Dorminy Mcdonough GA 719 45 M 4 45-49 37:56.2 12:14/M
103 Dawson Ausbon Commerce GA 514 10 M 13 0-10 38:01.1 12:16/M
104 Holly Berejikian Athens GA 527 48 F 4 45-49 38:17.5 12:21/M
105 Teresa Popp Athens GA 656 25 F 8 25-29 38:52.4 12:32/M
106 Charles Goodell Athens GA 590 26 M 2 25-29 38:57.1 12:34/M
107 Kate Mowbray 728 36 F 5 35-39 38:58.8 12:34/M
108 Allison Crawford Jefferson GA 559 28 F 9 25-29 39:12.4 12:39/M
109 Kadyn Barnett Commerce GA 521 10 F 5 0-10 39:13.4 12:39/M
110 Manda Barnett Commerce GA 523 38 F 6 35-39 39:13.7 12:39/M
111 Abby Marchman Athens GA 633 10 F 6 0-10 39:39.6 12:47/M
112 Lynn Marchman Athens GA 634 39 F 7 35-39 39:40.7 12:48/M
113 Sheila Grizzle Jefferson GA 599 57 F 5 55-59 39:42.1 12:48/M
114 Jessica Cooper Athens GA 558 27 F 10 25-29 39:43.2 12:49/M
115 Pamela Adams Athens GA 509 53 F 4 50-54 39:43.6 12:49/M
116 Mike Adams Watkinsville GA 508 62 M 4 60-64 39:54.1 12:52/M
117 Tommy Palmer Danielsville GA 645 41 M 7 40-44 40:21.9 13:01/M
118 Isaac Palmer Danielsville GA 642 10 M 14 0-10 40:23.0 13:02/M
119 Sara Whitmire Conyers GA 706 50 F 5 50-54 40:37.2 13:06/M
120 Fran Blackburn Monroe GA 534 56 F 6 55-59 40:38.4 13:06/M
121 Jean Rodriguez Winder GA 662 55 F 7 55-59 40:40.7 13:07/M
122 Heather L Sloan Winterville GA 670 44 F 5 40-44 40:43.0 13:08/M
123 Cindy Roop Commerce GA 515 56 F 8 55-59 40:45.0 13:09/M
124 Cole Dickerson Commerce GA 570 10 M 15 0-10 40:57.0 13:13/M
125 Lindsay Worsham Commerce GA 703 24 F 3 20-24 40:59.7 13:13/M
126 Ben Dickerson Commerce GA 569 38 M 4 35-39 41:00.5 13:14/M
127 Sherry Smith Nicholson GA 679 30 F 7 30-34 41:12.0 13:17/M
128 Mason Smith Nicholson GA 678 5 M 16 0-10 41:16.5 13:19/M
129 Mitchell Wilson Commerce GA 701 10 M 17 0-10 41:23.6 13:21/M
130 Jennifer Duncan Bogart GA 577 37 F 8 35-39 41:24.5 13:21/M
131 Kayden Massey Nicholson GA 637 10 F 7 0-10 41:33.8 13:24/M
132 Whitney Wilbanks Nicholson GA 696 27 F 11 25-29 41:40.0 13:26/M
133 Brian Wilson Commerce GA 699 36 M 5 35-39 41:46.2 13:28/M
134 Amanda Massey Nicholson GA 635 37 F 9 35-39 41:52.3 13:30/M
135 April Sass Statham GA 664 44 F 6 40-44 42:36.2 13:45/M
136 Jeree Wilson Jefferson GA 700 55 F 9 55-59 42:37.5 13:45/M
137 Todd Shultz Danielsville GA 669 47 M 5 45-49 42:55.7 13:51/M
138 Keely Shultz Danielsville GA 668 8 F 8 0-10 42:58.9 13:52/M
139 Harley Kate Smith Nicholson GA 675 8 F 9 0-10 43:02.1 13:53/M
140 Brenda Massey Nicholson GA 636 10 F 10 0-10 43:06.3 13:54/M
141 Julie Boyd Nicholson GA 540 22 F 4 20-24 43:10.0 13:55/M
142 Kayla Ballew Watkinsville GA 517 23 F 5 20-24 43:23.6 14:00/M
143 Sherri Ballew Watkinsville GA 520 51 F 6 50-54 43:27.9 14:01/M
144 Shannon Robertson Loganville GA 661 31 F 8 30-34 43:30.9 14:02/M
145 Francoise Fussell Walhalla SC 587 66 F 2 65-69 43:40.6 14:05/M
146 Skyler Pitts Lavonia GA 654 10 M 18 0-10 43:50.7 14:08/M
147 Katie Smith Athens GA 677 40 F 7 40-44 44:00.7 14:12/M
148 Chloe Smith Athens GA 673 8 F 11 0-10 44:10.8 14:15/M
149 Allison Young Watkinsville GA 704 22 F 6 20-24 44:11.3 14:15/M
150 Mary Lou Kau Athens GA 620 72 F 1 70-74 44:13.0 14:16/M
151 Monica Burke Bogart GA 547 60 F 2 60-64 44:26.7 14:20/M
152 Pete Pellegrini Bogart GA 647 67 M 7 65-69 44:29.6 14:21/M
153 Owen Davis Athens GA 567 8 M 19 0-10 44:34.2 14:23/M
154 Melissa Davis Athens GA 566 36 F 10 35-39 44:34.8 14:23/M
155 April Weaver Commerce GA 691 38 F 11 35-39 44:37.9 14:24/M
156 Ed Long Athens GA 739 49 M 6 45-49 45:02.8 14:32/M
157 Erin Leach Athens GEORGIA 629 35 F 12 35-39 45:27.8 14:40/M
158 Wilson Page Athens GA 641 72 M 4 70-74 46:37.7 15:02/M
159 Ernest Smallman Atlanta GA 671 69 M 8 65-69 46:38.6 15:03/M
160 Ryleigh Palmer Danielsville GA 644 13 F 5 11-14 47:10.8 15:13/M
161 Ann Bunce Winterville GA 546 72 F 2 70-74 47:43.8 15:24/M
162 Brittany Strickland Watkinsville GA 684 25 F 12 25-29 47:50.9 15:26/M
163 Carter Pennington Jefferson GA 648 8 M 20 0-10 47:52.5 15:26/M
164 Eric Pennington Jefferson GA 649 36 M 6 35-39 47:53.4 15:27/M
165 Heather Cash Homer GA 552 31 F 9 30-34 47:57.0 15:28/M
166 Melissa Adair Bogart GA 502 34 F 10 30-34 48:14.8 15:34/M
167 Janice Duncan Auburn GA 589 63 F 3 60-64 48:36.8 15:41/M
168 Logan Kietzman Watkinsville GA 622 10 F 12 0-10 49:03.5 15:49/M
169 Amy Batal Watkinsville GA 525 41 F 8 40-44 49:03.9 15:49/M
170 Anne Patrick Smyrna GA 666 78 F 1 75-79 49:22.9 15:55/M
171 Zachary Bailey Loganville GA 516 41 M 8 40-44 49:32.9 15:59/M
172 Katie Bielecki Commerce GA 529 10 F 13 0-10 49:52.7 16:05/M
173 Kaitlyn Weaver Commerce GA 692 9 F 14 0-10 49:54.1 16:06/M
174 Kayla Jarrells Nicholson GA 616 32 F 11 30-34 50:20.7 16:14/M
175 Hezekiah Jarrells Nicholson GA 615 12 M 3 11-14 50:42.0 16:21/M
176 Tiffany Brown Commerce GA 543 33 F 12 30-34 51:26.6 16:35/M
177 Lynn Savage Watkinsville GA 665 54 F 7 50-54 51:49.1 16:43/M
178 Jenny Palmer Danielsville GA 643 38 F 13 35-39 52:11.6 16:50/M
179 Derita Adams Watkinsville GA 506 51 F 8 50-54 52:41.7 17:00/M
180 Odessa Jarrells Nicholson GA 618 56 F 10 55-59 53:12.5 17:10/M
181 Nadjah Jarrells Nicholson GA 617 10 F 15 0-10 53:13.0 17:10/M
182 Amanda Wilson Commerce GA 698 43 F 9 40-44 53:14.3 17:10/M
183 Jamie Lovett Bogart GA 632 38 F 14 35-39 53:46.0 17:21/M
184 Jerry Kietzman Watkinsville GA 621 6 M 21 0-10 53:57.0 17:24/M
185 Ellen Morris Monroe GA 742 52 F 9 50-54 53:58.4 17:25/M
186 Julia Collins Hull GA 555 28 F 13 25-29 54:40.8 17:38/M
187 Jessica Dockery Commerce GA 572 30 F 13 30-34 1:04:50.0 20:55/M
188 Cora Dockery Commerce GA 571 10 F 16 0-10 1:04:51.9 20:55/M
189 Zachary Adair Bogart GA 503 4 M 22 0-10 1:06:53.1 21:35/M
190 Joel Adair Bogart GA 501 34 M 7 30-34 1:06:54.5 21:35/M